KSWF/SWF METAR and TAF weather

Enter ICAO airport designator
Station Type Date Time Source
KSWF METAR 2020/09/18 18:45 UTC NOAA

KSWF 181845Z 01013G17KT 10SM SKC 20/09 A2999


Station Type Date Time Source
KSWF Decoded METAR 2020/09/18 18:45 UTC NOAA

Newburgh / Stewart, NY, United States (KSWF) 41-30N 074-06W
Sep 18, 2020 - 02:45 PM EDT / 2020.09.18 1845 UTC
Wind: from the N (010 degrees) at 15 MPH (13 KT) gusting to 20 MPH (17 KT):0
Visibility: 10 mile(s):0
Sky conditions: clear
Temperature: 68 F (20 C)
Dew Point: 48 F (9 C)
Relative Humidity: 49%
Pressure (altimeter): 29.99 in. Hg (1015 hPa)
ob: KSWF 181845Z 01013G17KT 10SM SKC 20/09 A2999
cycle: 19

Station Type Date Time Source
KSWF TAF 2020/09/18 18:28 UTC NOAA

TAF KSWF 181726Z 1818/1924 03014G20KT P6SM SCT050
FM190000 36011KT P6SM SKC
FM190600 36008KT P6SM SKC
AMD NOT SKED

Example: see airport list